Have a Safe July 4th! 

Flight Track Log - Related Links

Times and Time Zones

All times are in EDT time to prevent confusion due to time zone crossing. See the AWE801 flight status page for this flight to view local times or setup timezone preferences in your user account.

Time Position Orientation Groundspeed Altitude Reporting Facility
EDT Latitude Longitude Course Direction KTS MPH feet Rate Location/Type
Tue 10:03:00 PM -22.4949 -43.4363 330° Northwest  Level FlightAware Approximate
Tue 10:04:00 PM -22.3901 -43.5004 331° Northwest  Level FlightAware Approximate
Tue 10:05:00 PM -22.2854 -43.5643 331° Northwest  Level FlightAware Approximate
Tue 10:06:00 PM -22.1806 -43.6282 331° Northwest  Level FlightAware Approximate
Tue 10:07:00 PM -22.0758 -43.6919 331° Northwest  Level FlightAware Approximate
Tue 10:08:00 PM -21.9709 -43.7556 331° Northwest  Level FlightAware Approximate
Tue 10:09:00 PM -21.8661 -43.8191 331° Northwest  Level FlightAware Approximate
Tue 10:10:00 PM -21.7612 -43.8826 331° Northwest  Level FlightAware Approximate
Tue 10:11:00 PM -21.6563 -43.9459 331° Northwest  Level FlightAware Approximate
Tue 10:12:00 PM -21.5514 -44.0092 331° Northwest  Level FlightAware Approximate
Tue 10:13:00 PM -21.4464 -44.0724 331° Northwest  Level FlightAware Approximate
Tue 10:14:00 PM -21.3414 -44.1355 331° Northwest  Level FlightAware Approximate
Tue 10:15:00 PM -21.2365 -44.1985 331° Northwest  Level FlightAware Approximate
Tue 10:16:00 PM -21.1314 -44.2615 331° Northwest  Level FlightAware Approximate
Tue 10:17:00 PM -21.0264 -44.3243 331° Northwest  Level FlightAware Approximate
Tue 10:18:00 PM -20.9259 -44.3855 330° Northwest  Level FlightAware Approximate
Tue 10:19:00 PM -20.8216 -44.4497 330° Northwest  Level FlightAware Approximate
Tue 10:20:00 PM -20.7174 -44.5139 330° Northwest  Level FlightAware Approximate
Tue 10:21:00 PM -20.6131 -44.5780 330° Northwest  Level FlightAware Approximate
Tue 10:22:00 PM -20.5088 -44.6420 330° Northwest  Level FlightAware Approximate
Tue 10:23:00 PM -20.4045 -44.7060 330° Northwest  Level FlightAware Approximate
Tue 10:24:00 PM -20.3001 -44.7698 330° Northwest  Level FlightAware Approximate
Tue 10:25:00 PM -20.1957 -44.8335 330° Northwest  Level FlightAware Approximate
Tue 10:26:00 PM -20.0913 -44.8972 330° Northwest  Level FlightAware Approximate
Tue 10:27:00 PM -19.9869 -44.9608 330° Northwest  Level FlightAware Approximate
Tue 10:28:00 PM -19.8825 -45.0243 330° Northwest  Level FlightAware Approximate
Tue 10:29:00 PM -19.7780 -45.0877 330° Northwest  Level FlightAware Approximate
Tue 10:30:00 PM -19.6735 -45.1510 330° Northwest  Level FlightAware Approximate
Tue 10:31:00 PM -19.5690 -45.2142 330° Northwest  Level FlightAware Approximate
Tue 10:32:00 PM -19.4645 -45.2774 330° Northwest  Level FlightAware Approximate
Tue 10:33:00 PM -19.3599 -45.3405 330° Northwest  Level FlightAware Approximate
Tue 10:34:00 PM -19.2553 -45.4035 330° Northwest  Level FlightAware Approximate
Tue 10:35:00 PM -19.1507 -45.4664 330° Northwest  Level FlightAware Approximate
Tue 10:36:00 PM -19.0461 -45.5292 330° Northwest  Level FlightAware Approximate
Tue 10:37:00 PM -18.9415 -45.5920 330° Northwest  Level FlightAware Approximate
Tue 10:38:00 PM -18.8368 -45.6547 330° Northwest  Level FlightAware Approximate
Tue 10:39:00 PM -18.7321 -45.7173 330° Northwest  Level FlightAware Approximate
Tue 10:40:00 PM -18.6274 -45.7798 330° Northwest  Level FlightAware Approximate
Tue 10:41:00 PM -18.5227 -45.8423 331° Northwest  Level FlightAware Approximate
Tue 10:42:00 PM -18.4179 -45.9046 331° Northwest  Level FlightAware Approximate
Tue 10:43:00 PM -18.3132 -45.9669 331° Northwest  Level FlightAware Approximate
Tue 10:44:00 PM -18.2084 -46.0291 331° Northwest  Level FlightAware Approximate
Tue 10:45:00 PM -18.1036 -46.0913 331° Northwest  Level FlightAware Approximate
Tue 10:46:00 PM -17.9988 -46.1534 331° Northwest  Level FlightAware Approximate
Tue 10:47:00 PM -17.8939 -46.2154 331° Northwest  Level FlightAware Approximate
Tue 10:48:00 PM -17.7890 -46.2773 331° Northwest  Level FlightAware Approximate
Tue 10:49:00 PM -17.6842 -46.3391 331° Northwest  Level FlightAware Approximate
Tue 10:50:00 PM -17.5793 -46.4009 331° Northwest  Level FlightAware Approximate
Tue 10:51:00 PM -17.4743 -46.4626 331° Northwest  Level FlightAware Approximate
Tue 10:52:00 PM -17.3694 -46.5243 331° Northwest  Level FlightAware Approximate
Tue 10:53:00 PM -17.2644 -46.5858 331° Northwest  Level FlightAware Approximate
Tue 10:54:00 PM -17.1595 -46.6474 331° Northwest  Level FlightAware Approximate
Tue 10:55:00 PM -17.0544 -46.7088 331° Northwest  Level FlightAware Approximate
Tue 10:56:00 PM -16.9494 -46.7701 331° Northwest  Level FlightAware Approximate
Tue 10:57:00 PM -16.8444 -46.8314 331° Northwest  Level FlightAware Approximate
Tue 10:58:00 PM -16.7393 -46.8927 331° Northwest  Level FlightAware Approximate
Tue 10:59:00 PM -16.6343 -46.9538 331° Northwest  Level FlightAware Approximate
Tue 11:00:00 PM -16.5292 -47.0149 331° Northwest  Level FlightAware Approximate
Tue 11:01:00 PM -16.4241 -47.0759 331° Northwest  Level FlightAware Approximate
Tue 11:02:00 PM -16.3190 -47.1369 331° Northwest  Level FlightAware Approximate
Tue 11:03:00 PM -16.2138 -47.1978 331° Northwest  Level FlightAware Approximate
Tue 11:04:00 PM -16.1087 -47.2586 331° Northwest  Level FlightAware Approximate
Tue 11:05:00 PM -16.0035 -47.3193 331° Northwest  Level FlightAware Approximate
Tue 11:06:00 PM -15.8983 -47.3800 331° Northwest  Level FlightAware Approximate
Tue 11:07:00 PM -15.7931 -47.4407 331° Northwest  Level FlightAware Approximate
Tue 11:08:00 PM -15.6878 -47.5012 331° Northwest  Level FlightAware Approximate
Tue 11:09:00 PM -15.5826 -47.5617 331° Northwest  Level FlightAware Approximate
Tue 11:10:00 PM -15.4773 -47.6222 331° Northwest  Level FlightAware Approximate
Tue 11:11:00 PM -15.3721 -47.6826 331° Northwest  Level FlightAware Approximate
Tue 11:12:00 PM -15.2668 -47.7429 331° Northwest  Level FlightAware Approximate
Tue 11:13:00 PM -15.1615 -47.8032 331° Northwest  Level FlightAware Approximate
Tue 11:14:00 PM -15.0561 -47.8634 331° Northwest  Level FlightAware Approximate
Tue 11:15:00 PM -14.9508 -47.9235 331° Northwest  Level FlightAware Approximate
Tue 11:16:00 PM -14.8454 -47.9836 331° Northwest  Level FlightAware Approximate
Tue 11:17:00 PM -14.7401 -48.0436 331° Northwest  Level FlightAware Approximate
Tue 11:18:00 PM -14.6347 -48.1036 331° Northwest  Level FlightAware Approximate
Tue 11:19:00 PM -14.5293 -48.1635 331° Northwest  Level FlightAware Approximate
Tue 11:20:00 PM -14.4239 -48.2233 331° Northwest  Level FlightAware Approximate
Tue 11:21:00 PM -14.3184 -48.2831 331° Northwest  Level FlightAware Approximate
Tue 11:22:00 PM -14.2130 -48.3429 331° Northwest  Level FlightAware Approximate
Tue 11:23:00 PM -14.1075 -48.4026 331° Northwest  Level FlightAware Approximate
Tue 11:24:00 PM -14.0020 -48.4622 331° Northwest  Level FlightAware Approximate
Tue 11:25:00 PM -13.8965 -48.5218 331° Northwest  Level FlightAware Approximate
Tue 11:26:00 PM -13.7910 -48.5813 331° Northwest  Level FlightAware Approximate
Tue 11:27:00 PM -13.6855 -48.6408 331° Northwest  Level FlightAware Approximate
Tue 11:28:00 PM -13.5800 -48.7002 331° Northwest  Level FlightAware Approximate
Tue 11:29:00 PM -13.4744 -48.7595 331° Northwest  Level FlightAware Approximate
Tue 11:30:00 PM -13.3689 -48.8188 331° Northwest  Level FlightAware Approximate
Tue 11:31:00 PM -13.2633 -48.8781 331° Northwest  Level FlightAware Approximate
Tue 11:32:00 PM -13.1577 -48.9373 331° Northwest  Level FlightAware Approximate
Tue 11:33:00 PM -13.0521 -48.9964 331° Northwest  Level FlightAware Approximate
Tue 11:34:00 PM -12.9465 -49.0555 331° Northwest  Level FlightAware Approximate
Tue 11:35:00 PM -12.8408 -49.1146 331° Northwest  Level FlightAware Approximate
Tue 11:36:00 PM -12.7352 -49.1736 331° Northwest  Level FlightAware Approximate
Tue 11:37:00 PM -12.6295 -49.2325 331° Northwest  Level FlightAware Approximate
Tue 11:38:00 PM -12.5239 -49.2915 331° Northwest  Level FlightAware Approximate
Tue 11:39:00 PM -12.4182 -49.3503 331° Northwest  Level FlightAware Approximate
Tue 11:40:00 PM -12.3125 -49.4091 331° Northwest  Level FlightAware Approximate
Tue 11:41:00 PM -12.2068 -49.4679 331° Northwest  Level FlightAware Approximate
Tue 11:42:00 PM -12.1011 -49.5266 331° Northwest  Level FlightAware Approximate
Tue 11:43:00 PM -11.9953 -49.5853 332° Northwest  Level FlightAware Approximate
Tue 11:44:00 PM -11.8896 -49.6439 332° Northwest  Level FlightAware Approximate
Tue 11:45:00 PM -11.7838 -49.7025 332° Northwest  Level FlightAware Approximate
Tue 11:46:00 PM -11.6781 -49.7610 332° Northwest  Level FlightAware Approximate
Tue 11:47:00 PM -11.5723 -49.8195 332° Northwest  Level FlightAware Approximate
Tue 11:48:00 PM -11.4665 -49.8779 332° Northwest  Level FlightAware Approximate
Tue 11:49:00 PM -11.3607 -49.9363 332° Northwest  Level FlightAware Approximate
Tue 11:50:00 PM -11.2549 -49.9947 332° Northwest  Level FlightAware Approximate
Tue 11:51:00 PM -11.1490 -50.0530 332° Northwest  Level FlightAware Approximate
Tue 11:52:00 PM -11.0432 -50.1113 332° Northwest  Level FlightAware Approximate
Tue 11:53:00 PM -10.9373 -50.1695 332° Northwest  Level FlightAware Approximate
Tue 11:54:00 PM -10.8315 -50.2277 332° Northwest  Level FlightAware Approximate
Tue 11:55:00 PM -10.7256 -50.2858 332° Northwest  Level FlightAware Approximate
Tue 11:56:00 PM -10.6197 -50.3439 332° Northwest  Level FlightAware Approximate
Tue 11:57:00 PM -10.5138 -50.4020 332° Northwest  Level FlightAware Approximate
Tue 11:58:00 PM -10.4079 -50.4600 332° Northwest  Level FlightAware Approximate
Tue 11:59:00 PM -10.3020 -50.5180 332° Northwest  Level FlightAware Approximate
Wed 12:00:00 AM -10.1961 -50.5760 332° Northwest  Level FlightAware Approximate
Wed 12:01:00 AM -10.0902 -50.6339 332° Northwest  Level FlightAware Approximate
Wed 12:02:00 AM -9.9842 -50.6918 332° Northwest  Level FlightAware Approximate
Wed 12:03:00 AM -9.8783 -50.7496 332° Northwest  Level FlightAware Approximate
Wed 12:04:00 AM -9.7723 -50.8074 332° Northwest  Level FlightAware Approximate
Wed 12:05:00 AM -9.6664 -50.8652 332° Northwest  Level FlightAware Approximate
Wed 12:06:00 AM -9.5604 -50.9229 332° Northwest  Level FlightAware Approximate
Wed 12:07:00 AM -9.4544 -50.9806 332° Northwest  Level FlightAware Approximate
Wed 12:08:00 AM -9.3484 -51.0382 332° Northwest  Level FlightAware Approximate
Wed 12:09:00 AM -9.2424 -51.0958 332° Northwest  Level FlightAware Approximate
Wed 12:10:00 AM -9.1363 -51.1534 332° Northwest  Level FlightAware Approximate
Wed 12:11:00 AM -9.0303 -51.2110 332° Northwest  Level FlightAware Approximate
Wed 12:12:00 AM -8.9243 -51.2685 332° Northwest  Level FlightAware Approximate
Wed 12:13:00 AM -8.8182 -51.3260 332° Northwest  Level FlightAware Approximate
Wed 12:14:00 AM -8.7122 -51.3834 332° Northwest  Level FlightAware Approximate
Wed 12:15:00 AM -8.6061 -51.4408 332° Northwest  Level FlightAware Approximate
Wed 12:16:00 AM -8.5000 -51.4982 332° Northwest  Level FlightAware Approximate
Wed 12:17:00 AM -8.3940 -51.5555 332° Northwest  Level FlightAware Approximate
Wed 12:18:00 AM -8.2879 -51.6129 332° Northwest  Level FlightAware Approximate
Wed 12:19:00 AM -8.1818 -51.6702 332° Northwest  Level FlightAware Approximate
Wed 12:20:00 AM -8.0757 -51.7274 332° Northwest  Level FlightAware Approximate
Wed 12:21:00 AM -7.9695 -51.7846 332° Northwest  Level FlightAware Approximate
Wed 12:22:00 AM -7.8634 -51.8419 332° Northwest  Level FlightAware Approximate
Wed 12:23:00 AM -7.7573 -51.8990 332° Northwest  Level FlightAware Approximate
Wed 12:24:00 AM -7.6511 -51.9562 332° Northwest  Level FlightAware Approximate
Wed 12:25:00 AM -7.5450 -52.0133 332° Northwest  Level FlightAware Approximate
Wed 12:26:00 AM -7.4388 -52.0704 332° Northwest  Level FlightAware Approximate
Wed 12:27:00 AM -7.3327 -52.1274 332° Northwest  Level FlightAware Approximate
Wed 12:28:00 AM -7.2265 -52.1844 332° Northwest  Level FlightAware Approximate
Wed 12:29:00 AM -7.1203 -52.2414 332° Northwest  Level FlightAware Approximate
Wed 12:30:00 AM -7.0142 -52.2984 332° Northwest  Level FlightAware Approximate
Wed 12:31:00 AM -6.9080 -52.3554 332° Northwest  Level FlightAware Approximate
Wed 12:32:00 AM -6.8018 -52.4123 332° Northwest  Level FlightAware Approximate
Wed 12:33:00 AM -6.6956 -52.4692 332° Northwest  Level FlightAware Approximate
Wed 12:34:00 AM -6.5894 -52.5260 332° Northwest  Level FlightAware Approximate
Wed 12:35:00 AM -6.4831 -52.5829 332° Northwest  Level FlightAware Approximate
Wed 12:36:00 AM -6.3769 -52.6397 332° Northwest  Level FlightAware Approximate
Wed 12:37:00 AM -6.2707 -52.6965 332° Northwest  Level FlightAware Approximate
Wed 12:38:00 AM -6.1645 -52.7533 332° Northwest  Level FlightAware Approximate
Wed 12:39:00 AM -6.0582 -52.8101 332° Northwest  Level FlightAware Approximate
Wed 12:40:00 AM -5.9520 -52.8668 332° Northwest  Level FlightAware Approximate
Wed 12:41:00 AM -5.8457 -52.9235 332° Northwest  Level FlightAware Approximate
Wed 12:42:00 AM -5.7395 -52.9802 332° Northwest  Level FlightAware Approximate
Wed 12:43:00 AM -5.6332 -53.0368 332° Northwest  Level FlightAware Approximate
Wed 12:44:00 AM -5.5269 -53.0935 332° Northwest  Level FlightAware Approximate
Wed 12:45:00 AM -5.4207 -53.1501 332° Northwest  Level FlightAware Approximate
Wed 12:46:00 AM -5.3144 -53.2067 332° Northwest  Level FlightAware Approximate
Wed 12:47:00 AM -5.2081 -53.2633 332° Northwest  Level FlightAware Approximate
Wed 12:48:00 AM -5.1018 -53.3199 332° Northwest  Level FlightAware Approximate
Wed 12:49:00 AM -4.9955 -53.3764 332° Northwest  Level FlightAware Approximate
Wed 12:50:00 AM -4.8892 -53.4330 332° Northwest  Level FlightAware Approximate
Wed 12:51:00 AM -4.7829 -53.4895 332° Northwest  Level FlightAware Approximate
Wed 12:52:00 AM -4.6766 -53.5460 332° Northwest  Level FlightAware Approximate
Wed 12:53:00 AM -4.5703 -53.6025 332° Northwest  Level FlightAware Approximate
Wed 12:54:00 AM -4.4640 -53.6589 332° Northwest  Level FlightAware Approximate
Wed 12:55:00 AM -4.3577 -53.7154 332° Northwest  Level FlightAware Approximate
Wed 12:56:00 AM -4.2513 -53.7718 332° Northwest  Level FlightAware Approximate
Wed 12:57:00 AM -4.1450 -53.8282 332° Northwest  Level FlightAware Approximate
Wed 12:58:00 AM -4.0387 -53.8846 332° Northwest  Level FlightAware Approximate
Wed 12:59:00 AM -3.9323 -53.9410 332° Northwest  Level FlightAware Approximate
Wed 01:00:00 AM -3.8260 -53.9974 332° Northwest  Level FlightAware Approximate
Wed 01:01:00 AM -3.7196 -54.0537 332° Northwest  Level FlightAware Approximate
Wed 01:02:00 AM -3.6133 -54.1101 332° Northwest  Level FlightAware Approximate
Wed 01:03:00 AM -3.5069 -54.1664 332° Northwest  Level FlightAware Approximate
Wed 01:04:00 AM -3.4006 -54.2227 332° Northwest  Level FlightAware Approximate
Wed 01:05:00 AM -3.2942 -54.2790 332° Northwest  Level FlightAware Approximate
Wed 01:06:00 AM -3.1879 -54.3353 332° Northwest  Level FlightAware Approximate
Wed 01:07:00 AM -3.0815 -54.3916 332° Northwest  Level FlightAware Approximate
Wed 01:08:00 AM -2.9751 -54.4479 332° Northwest  Level FlightAware Approximate
Wed 01:09:00 AM -2.8688 -54.5041 332° Northwest  Level FlightAware Approximate
Wed 01:10:00 AM -2.7624 -54.5604 332° Northwest  Level FlightAware Approximate
Wed 01:11:00 AM -2.6560 -54.6166 332° Northwest  Level FlightAware Approximate
Wed 01:12:00 AM -2.5496 -54.6728 332° Northwest  Level FlightAware Approximate
Wed 01:13:00 AM -2.4432 -54.7291 332° Northwest  Level FlightAware Approximate
Wed 01:14:00 AM -2.3369 -54.7853 332° Northwest  Level FlightAware Approximate
Wed 01:15:00 AM -2.2305 -54.8415 332° Northwest  Level FlightAware Approximate
Wed 01:16:00 AM -2.1241 -54.8977 332° Northwest  Level FlightAware Approximate
Wed 01:17:00 AM -2.0177 -54.9538 332° Northwest  Level FlightAware Approximate
Wed 01:18:00 AM -1.9113 -55.0100 332° Northwest  Level FlightAware Approximate
Wed 01:19:00 AM -1.8049 -55.0662 332° Northwest  Level FlightAware Approximate
Wed 01:20:00 AM -1.6985 -55.1224 332° Northwest  Level FlightAware Approximate
Wed 01:21:00 AM -1.5921 -55.1785 332° Northwest  Level FlightAware Approximate
Wed 01:22:00 AM -1.4857 -55.2347 332° Northwest  Level FlightAware Approximate
Wed 01:23:00 AM -1.3793 -55.2908 332° Northwest  Level FlightAware Approximate
Wed 01:24:00 AM -1.2729 -55.3470 332° Northwest  Level FlightAware Approximate
Wed 01:25:00 AM -1.1665 -55.4031 332° Northwest  Level FlightAware Approximate
Wed 01:26:00 AM -1.0601 -55.4592 332° Northwest  Level FlightAware Approximate
Wed 01:27:00 AM -0.9537 -55.5154 332° Northwest  Level FlightAware Approximate
Wed 01:28:00 AM -0.8473 -55.5715 332° Northwest  Level FlightAware Approximate
Wed 01:29:00 AM -0.7409 -55.6276 332° Northwest  Level FlightAware Approximate
Wed 01:30:00 AM -0.6345 -55.6837 332° Northwest  Level FlightAware Approximate
Wed 01:31:00 AM -0.5281 -55.7398 332° Northwest  Level FlightAware Approximate
Wed 01:32:00 AM -0.4216 -55.7960 332° Northwest  Level FlightAware Approximate
Wed 01:33:00 AM -0.3152 -55.8521 332° Northwest  Level FlightAware Approximate
Wed 01:34:00 AM -0.2088 -55.9082 332° Northwest  Level FlightAware Approximate
Wed 01:35:00 AM -0.1024 -55.9643 332° Northwest  Level FlightAware Approximate
Wed 01:36:00 AM 0.0040 -56.0204 332° Northwest  Level FlightAware Approximate
Wed 01:37:00 AM 0.1104 -56.0765 332° Northwest  Level FlightAware Approximate
Wed 01:38:00 AM 0.2168 -56.1326 332° Northwest  Level FlightAware Approximate
Wed 01:39:00 AM 0.3232 -56.1887 332° Northwest  Level FlightAware Approximate
Wed 01:40:00 AM 0.4296 -56.2449 332° Northwest  Level FlightAware Approximate
Wed 01:41:00 AM 0.5360 -56.3010 332° Northwest  Level FlightAware Approximate
Wed 01:42:00 AM 0.6424 -56.3571 332° Northwest  Level FlightAware Approximate
Wed 01:43:00 AM 0.7489 -56.4132 332° Northwest  Level FlightAware Approximate
Wed 01:44:00 AM 0.8553 -56.4693 332° Northwest  Level FlightAware Approximate
Wed 01:45:00 AM 0.9617 -56.5255 332° Northwest  Level FlightAware Approximate
Wed 01:46:00 AM 1.0681 -56.5816 332° Northwest  Level FlightAware Approximate
Wed 01:47:00 AM 1.1745 -56.6377 332° Northwest  Level FlightAware Approximate
Wed 01:48:00 AM 1.2809 -56.6939 332° Northwest  Level FlightAware Approximate
Wed 01:49:00 AM 1.3873 -56.7500 332° Northwest  Level FlightAware Approximate
Wed 01:50:00 AM 1.4937 -56.8062 332° Northwest  Level FlightAware Approximate
Wed 01:51:00 AM 1.6001 -56.8623 332° Northwest  Level FlightAware Approximate
Wed 01:52:00 AM 1.7065 -56.9185 332° Northwest  Level FlightAware Approximate
Wed 01:53:00 AM 1.8129 -56.9746 332° Northwest  Level FlightAware Approximate
Wed 01:54:00 AM 1.9193 -57.0308 332° Northwest  Level FlightAware Approximate
Wed 01:55:00 AM 2.0257 -57.0870 332° Northwest  Level FlightAware Approximate
Wed 01:56:00 AM 2.1321 -57.1432 332° Northwest  Level FlightAware Approximate
Wed 01:57:00 AM 2.2384 -57.1994 332° Northwest  Level FlightAware Approximate
Wed 01:58:00 AM 2.3448 -57.2556 332° Northwest  Level FlightAware Approximate
Wed 01:59:00 AM 2.4512 -57.3118 332° Northwest  Level FlightAware Approximate
Wed 02:00:00 AM 2.5576 -57.3680 332° Northwest  Level FlightAware Approximate
Wed 02:01:00 AM 2.6640 -57.4242 332° Northwest  Level FlightAware Approximate
Wed 02:02:00 AM 2.7703 -57.4805 332° Northwest  Level FlightAware Approximate
Wed 02:03:00 AM 2.8767 -57.5367 332° Northwest  Level FlightAware Approximate
Wed 02:04:00 AM 2.9831 -57.5930 332° Northwest  Level FlightAware Approximate
Wed 02:05:00 AM 3.0895 -57.6493 332° Northwest  Level FlightAware Approximate
Wed 02:06:00 AM 3.1958 -57.7055 332° Northwest  Level FlightAware Approximate
Wed 02:07:00 AM 3.3022 -57.7618 332° Northwest  Level FlightAware Approximate
Wed 02:08:00 AM 3.4085 -57.8181 332° Northwest  Level FlightAware Approximate
Wed 02:09:00 AM 3.5149 -57.8745 332° Northwest  Level FlightAware Approximate
Wed 02:10:00 AM 3.6212 -57.9308 332° Northwest  Level FlightAware Approximate
Wed 02:11:00 AM 3.7276 -57.9871 332° Northwest  Level FlightAware Approximate
Wed 02:12:00 AM 3.8338 -58.0438 332° Northwest  Level FlightAware Approximate
Wed 02:13:00 AM 3.9398 -58.1007 332° Northwest  Level FlightAware Approximate
Wed 02:14:00 AM 4.0458 -58.1577 332° Northwest  Level FlightAware Approximate
Wed 02:15:00 AM 4.1518 -58.2147 332° Northwest  Level FlightAware Approximate
Wed 02:16:00 AM 4.2578 -58.2718 332° Northwest  Level FlightAware Approximate
Wed 02:17:00 AM 4.3638 -58.3288 332° Northwest  Level FlightAware Approximate
Wed 02:18:00 AM 4.4698 -58.3858 332° Northwest  Level FlightAware Approximate
Wed 02:19:00 AM 4.5758 -58.4429 332° Northwest  Level FlightAware Approximate
Wed 02:20:00 AM 4.6818 -58.5000 332° Northwest  Level FlightAware Approximate
Wed 02:21:00 AM 4.7878 -58.5571 332° Northwest  Level FlightAware Approximate
Wed 02:22:00 AM 4.8938 -58.6142 332° Northwest  Level FlightAware Approximate
Wed 02:23:00 AM 4.9998 -58.6713 332° Northwest  Level FlightAware Approximate
Wed 02:24:00 AM 5.1058 -58.7285 332° Northwest  Level FlightAware Approximate
Wed 02:25:00 AM 5.2117 -58.7857 332° Northwest  Level FlightAware Approximate
Wed 02:26:00 AM 5.3178 -58.8426 333° Northwest  Level FlightAware Approximate
Wed 02:27:00 AM 5.4246 -58.8983 333° Northwest  Level FlightAware Approximate
Wed 02:28:00 AM 5.5314 -58.9539 333° Northwest  Level FlightAware Approximate
Wed 02:29:00 AM 5.6382 -59.0096 333° Northwest  Level FlightAware Approximate
Wed 02:30:00 AM 5.7449 -59.0653 333° Northwest  Level FlightAware Approximate
Wed 02:31:00 AM 5.8517 -59.1211 333° Northwest  Level FlightAware Approximate
Wed 02:32:00 AM 5.9584 -59.1768 333° Northwest  Level FlightAware Approximate
Wed 02:33:00 AM 6.0652 -59.2326 333° Northwest  Level FlightAware Approximate
Wed 02:34:00 AM 6.1715 -59.2892 332° Northwest  Level FlightAware Approximate
Wed 02:35:00 AM 6.2778 -59.3458 332° Northwest  Level FlightAware Approximate
Wed 02:36:00 AM 6.3841 -59.4024 332° Northwest  Level FlightAware Approximate
Wed 02:37:00 AM 6.4904 -59.4591 332° Northwest  Level FlightAware Approximate
Wed 02:38:00 AM 6.5967 -59.5158 332° Northwest  Level FlightAware Approximate
Wed 02:39:00 AM 6.7030 -59.5725 332° Northwest  Level FlightAware Approximate
Wed 02:40:00 AM 6.8093 -59.6292 332° Northwest  Level FlightAware Approximate
Wed 02:41:00 AM 6.9156 -59.6860 332° Northwest  Level FlightAware Approximate
Wed 02:42:00 AM 7.0219 -59.7428 332° Northwest  Level FlightAware Approximate
Wed 02:43:00 AM 7.1281 -59.7996 332° Northwest  Level FlightAware Approximate
Wed 02:44:00 AM 7.2344 -59.8565 332° Northwest  Level FlightAware Approximate
Wed 02:45:00 AM 7.3406 -59.9134 332° Northwest  Level FlightAware Approximate
Wed 02:46:00 AM 7.4469 -59.9703 332° Northwest  Level FlightAware Approximate
Wed 02:47:00 AM 7.5531 -60.0272 332° Northwest  Level FlightAware Approximate
Wed 02:48:00 AM 7.6593 -60.0841 332° Northwest  Level FlightAware Approximate
Wed 02:49:00 AM 7.7656 -60.1411 332° Northwest  Level FlightAware Approximate
Wed 02:50:00 AM 7.8718 -60.1982 332° Northwest  Level FlightAware Approximate
Wed 02:51:00 AM 7.9780 -60.2552 332° Northwest  Level FlightAware Approximate
Wed 02:52:00 AM 8.0842 -60.3123 332° Northwest  Level FlightAware Approximate
Wed 02:53:00 AM 8.1904 -60.3694 332° Northwest  Level FlightAware Approximate
Wed 02:54:00 AM 8.2965 -60.4265 332° Northwest  Level FlightAware Approximate
Wed 02:55:00 AM 8.4027 -60.4837 332° Northwest  Level FlightAware Approximate
Wed 02:56:00 AM 8.5089 -60.5409 332° Northwest  Level FlightAware Approximate
Wed 02:57:00 AM 8.6150 -60.5981 332° Northwest  Level FlightAware Approximate
Wed 02:58:00 AM 8.7212 -60.6553 332° Northwest  Level FlightAware Approximate
Wed 02:59:00 AM 8.8302 -60.7142 332° Northwest  Level FlightAware Approximate
Wed 03:00:00 AM 8.9391 -60.7730 332° Northwest  Level FlightAware Approximate
Wed 03:01:00 AM 9.0481 -60.8319 332° Northwest  Level FlightAware Approximate
Wed 03:02:00 AM 9.1570 -60.8909 332° Northwest  Level FlightAware Approximate
Wed 03:03:00 AM 9.2660 -60.9498 332° Northwest  Level FlightAware Approximate
Wed 03:04:00 AM 9.3749 -61.0088 332° Northwest  Level FlightAware Approximate
Wed 03:05:00 AM 9.4838 -61.0679 332° Northwest  Level FlightAware Approximate
Wed 03:06:00 AM 9.5927 -61.1269 332° Northwest  Level FlightAware Approximate
Wed 03:07:00 AM 9.7016 -61.1861 332° Northwest  Level FlightAware Approximate
Wed 03:08:00 AM 9.8105 -61.2452 332° Northwest  Level FlightAware Approximate
Wed 03:09:00 AM 9.9193 -61.3047 332° Northwest  Level FlightAware Approximate
Wed 03:10:00 AM 10.0279 -61.3643 332° Northwest  Level FlightAware Approximate
Wed 03:11:00 AM 10.1365 -61.4240 332° Northwest  Level FlightAware Approximate
Wed 03:12:00 AM 10.2452 -61.4837 332° Northwest  Level FlightAware Approximate
Wed 03:13:00 AM 10.3538 -61.5435 332° Northwest  Level FlightAware Approximate
Wed 03:14:00 AM 10.4624 -61.6033 332° Northwest  Level FlightAware Approximate
Wed 03:15:00 AM 10.5710 -61.6632 332° Northwest  Level FlightAware Approximate
Wed 03:16:00 AM 10.6796 -61.7230 332° Northwest  Level FlightAware Approximate
Wed 03:17:00 AM 10.7882 -61.7830 332° Northwest  Level FlightAware Approximate
Wed 03:18:00 AM 10.8967 -61.8429 332° Northwest  Level FlightAware Approximate
Wed 03:19:00 AM 11.0053 -61.9030 332° Northwest  Level FlightAware Approximate
Wed 03:20:00 AM 11.1138 -61.9630 331° Northwest  Level FlightAware Approximate
Wed 03:21:00 AM 11.2223 -62.0232 331° Northwest  Level FlightAware Approximate
Wed 03:22:00 AM 11.3308 -62.0833 331° Northwest  Level FlightAware Approximate
Wed 03:23:00 AM 11.4394 -62.1435 331° Northwest  Level FlightAware Approximate
Wed 03:24:00 AM 11.5478 -62.2038 331° Northwest  Level FlightAware Approximate
Wed 03:25:00 AM 11.6563 -62.2640 331° Northwest  Level FlightAware Approximate
Wed 03:26:00 AM 11.7648 -62.3244 331° Northwest  Level FlightAware Approximate
Wed 03:27:00 AM 11.8732 -62.3848 331° Northwest  Level FlightAware Approximate
Wed 03:28:00 AM 11.9817 -62.4452 331° Northwest  Level FlightAware Approximate
Wed 03:29:00 AM 12.0899 -62.5060 331° Northwest  Level FlightAware Approximate
Wed 03:30:00 AM 12.1980 -62.5672 331° Northwest  Level FlightAware Approximate
Wed 03:31:00 AM 12.3060 -62.6285 331° Northwest  Level FlightAware Approximate
Wed 03:32:00 AM 12.4140 -62.6898 331° Northwest  Level FlightAware Approximate
Wed 03:33:00 AM 12.5220 -62.7512 331° Northwest  Level FlightAware Approximate
Wed 03:34:00 AM 12.6300 -62.8127 331° Northwest  Level FlightAware Approximate
Wed 03:35:00 AM 12.7380 -62.8741 331° Northwest  Level FlightAware Approximate
Wed 03:36:00 AM 12.8464 -62.9347 332° Northwest  Level FlightAware Approximate
Wed 03:37:00 AM 12.9552 -62.9947 332° Northwest  Level FlightAware Approximate
Wed 03:38:00 AM 13.0640 -63.0547 332° Northwest  Level FlightAware Approximate
Wed 03:39:00 AM 13.1728 -63.1148 332° Northwest  Level FlightAware Approximate
Wed 03:40:00 AM 13.2816 -63.1749 332° Northwest  Level FlightAware Approximate
Wed 03:40:21 AM 15.0167 -64.1333 332° Northwest 470 541 38,000  Level San Juan Center
Wed 03:41:00 AM 13.3903 -63.2351 332° Northwest  Level FlightAware Approximate
Wed 03:41:21 AM 15.1167 -64.2167 321° Northwest 460 529 38,000  Level San Juan Center
Wed 03:42:00 AM 13.4991 -63.2953 332° Northwest  Level FlightAware Approximate
Wed 03:42:22 AM 15.2333 -64.2833 331° Northwest 460 529 38,000  Level San Juan Center
Wed 03:43:00 AM 13.6078 -63.3556 332° Northwest  Level FlightAware Approximate
Wed 03:43:22 AM 15.3333 -64.3500 327° Northwest 460 529 38,000  Level San Juan Center
Wed 03:44:00 AM 13.7165 -63.4159 332° Northwest  Level FlightAware Approximate
Wed 03:44:22 AM 15.4500 -64.4167 331° Northwest 470 541 38,000  Level San Juan Center
Wed 03:45:00 AM 13.8252 -63.4763 332° Northwest  Level FlightAware Approximate
Wed 03:45:23 AM 15.5500 -64.5000 321° Northwest 460 529 38,000  Level San Juan Center
Wed 03:46:23 AM 15.6667 -64.5667 331° Northwest 450 518 38,000  Level San Juan Center
Wed 03:47:23 AM 15.7667 -64.6333 327° Northwest 450 518 38,000  Level San Juan Center
Wed 03:48:24 AM 15.8833 -64.7000 331° Northwest 460 529 38,000  Level San Juan Center
Wed 03:49:24 AM 15.9833 -64.8000 316° Northwest 470 541 38,000  Level San Juan Center
Wed 03:50:24 AM 16.0833 -64.8667 327° Northwest 460 529 38,000  Level San Juan Center
Wed 03:51:25 AM 16.2000 -64.9333 331° Northwest 440 506 38,000  Level San Juan Center
Wed 03:52:25 AM 16.3000 -65.0000 327° Northwest 440 506 38,000  Level San Juan Center
Wed 03:53:25 AM 16.4000 -65.0667 327° Northwest 440 506 38,000  Level San Juan Center
Wed 03:54:25 AM 16.5000 -65.1500 321° Northwest 440 506 38,000  Level San Juan Center
Wed 03:55:26 AM 16.6000 -65.2000 334° Northwest 430 495 38,000  Level San Juan Center
Wed 03:56:26 AM 16.7000 -65.2667 327° Northwest 430 495 38,000  Level San Juan Center
Wed 03:57:26 AM 16.8000 -65.3333 327° Northwest 440 506 38,000  Level San Juan Center
Wed 03:58:27 AM 16.9167 -65.4000 331° Northwest 440 506 38,000  Level San Juan Center
Wed 03:59:27 AM 17.0167 -65.4667 327° Northwest 440 506 38,000  Level San Juan Center
Wed 04:00:27 AM 17.1167 -65.5333 328° Northwest 440 506 38,000  Level San Juan Center
Wed 04:01:27 AM 17.2167 -65.6167 321° Northwest 440 506 38,000  Level San Juan Center
Wed 04:02:28 AM 17.3333 -65.7000 326° Northwest 460 529 38,000  Level San Juan Center
Wed 04:03:28 AM 17.4167 -65.7500 330° Northwest 420 483 38,000  Level San Juan Center
Wed 04:04:28 AM 17.5167 -65.8167 328° Northwest 420 483 38,000  Level San Juan Center
Wed 04:05:29 AM 17.6333 -65.9000 326° Northwest 460 529 38,000  Level San Juan Center
Wed 04:06:29 AM 17.7333 -65.9667 328° Northwest 430 495 38,000  Level San Juan Center
Wed 04:07:29 AM 17.8167 -66.0167 330° Northwest 400 460 38,000 50 Level San Juan Center
Wed 04:08:30 AM 17.9167 -66.1000 322° Northwest 430 495 38,100 248 Climbing San Juan Center
Wed 04:09:30 AM 18.0167 -66.1667 328° Northwest 420 483 38,500 450 Climbing San Juan Center
Wed 04:10:30 AM 18.1333 -66.2333 331° Northwest 440 506 39,000 545 Climbing San Juan Center
Wed 04:11:31 AM 18.2333 -66.3000 328° Northwest 420 483 39,600 496 Climbing San Juan Center
Wed 04:12:31 AM 18.3333 -66.3667 328° Northwest 410 472 40,000 200 Climbing San Juan Center
Wed 04:13:31 AM 18.4167 -66.4333 323° Northwest 410 472 40,000  Level San Juan Center
Wed 04:14:32 AM 18.5167 -66.5000 328° Northwest 410 472 40,000  Level San Juan Center
Wed 04:15:32 AM 18.6167 -66.5667 328° Northwest 410 472 40,000  Level San Juan Center
Wed 04:16:32 AM 18.7167 -66.6333 328° Northwest 410 472 40,000  Level San Juan Center
Wed 04:17:32 AM 18.8167 -66.7000 328° Northwest 400 460 40,000  Level San Juan Center
Wed 04:18:33 AM 18.9000 -66.7667 323° Northwest 400 460 40,000  Level San Juan Center
Wed 04:19:33 AM 19.0000 -66.8333 328° Northwest 400 460 40,000  Level San Juan Center
Wed 04:20:33 AM 19.1000 -66.9000 328° Northwest 400 460 40,000  Level San Juan Center
Wed 04:21:34 AM 19.1833 -66.9667 323° Northwest 420 483 40,000  Level San Juan Center
Wed 04:22:34 AM 19.2667 -67.0167 330° Northwest 390 449 40,000  Level San Juan Center
Wed 04:23:34 AM 19.3667 -67.0833 328° Northwest 400 460 40,000  Level San Juan Center
Wed 04:24:35 AM 19.4667 -67.1500 328° Northwest 410 472 40,000  Level San Juan Center
Wed 04:25:35 AM 19.5500 -67.2167 323° Northwest 420 483 40,000  Level San Juan Center
Wed 04:26:35 AM 19.6500 -67.2833 328° Northwest 410 472 40,000  Level San Juan Center
Wed 04:27:36 AM 19.7500 -67.3500 328° Northwest 410 472 40,000  Level San Juan Center
Wed 04:28:36 AM 19.8500 -67.4333 322° Northwest 420 483 40,000  Level San Juan Center
Wed 04:29:36 AM 19.9500 -67.5000 328° Northwest 410 472 40,000  Level San Juan Center
Wed 04:30:36 AM 20.0500 -67.5667 328° Northwest 420 483 40,000  Level San Juan Center
Wed 04:31:37 AM 20.1333 -67.6333 323° Northwest 410 472 40,000  Level San Juan Center
Wed 04:33:39 AM 20.3325 -67.7808 325° Northwest 428 493 40,000  Level Miami Center
Wed 04:34:39 AM 20.4119 -67.8594 317° Northwest 418 481 40,000  Level Miami Center
Wed 04:35:39 AM 20.5014 -67.9331 322° Northwest 411 473 40,000  Level Miami Center
Wed 04:36:39 AM 20.5889 -68.0089 321° Northwest 405 466 40,000  Level Miami Center
Wed 04:37:39 AM 20.6786 -68.0850 322° Northwest 405 466 40,000  Level Miami Center
Wed 04:38:39 AM 20.7703 -68.1611 322° Northwest 405 466 40,000  Level Miami Center
Wed 04:39:39 AM 20.8578 -68.2375 321° Northwest 405 466 40,000  Level Miami Center
Wed 04:40:39 AM 20.9475 -68.3158 321° Northwest 405 466 40,000  Level Miami Center
Wed 04:41:39 AM 21.0308 -68.3928 319° Northwest 411 473 40,000  Level Miami Center
Wed 04:42:39 AM 21.1206 -68.4692 322° Northwest 411 473 40,000  Level Miami Center
Wed 04:43:39 AM 21.2100 -68.5458 321° Northwest 411 473 40,000  Level Miami Center
Wed 04:44:39 AM 21.2869 -68.6233 317° Northwest 400 460 40,000  Level Miami Center
Wed 04:45:39 AM 21.3828 -68.7019 323° Northwest 400 460 40,000  Level Miami Center
Wed 04:46:39 AM 21.4681 -68.7767 321° Northwest 400 460 40,000  Level Miami Center
Wed 04:47:39 AM 21.5597 -68.8536 322° Northwest 401 461 40,000  Level Miami Center
Wed 04:48:39 AM 21.6533 -68.9328 322° Northwest 411 473 40,000  Level Miami Center
Wed 04:49:39 AM 21.7342 -69.0058 320° Northwest 401 461 40,000  Level Miami Center
Wed 04:50:39 AM 21.8214 -69.0833 320° Northwest 401 461 40,000  Level Miami Center
Wed 04:51:39 AM 21.9044 -69.1589 320° Northwest 391 450 40,000  Level Miami Center
Wed 04:52:39 AM 21.9958 -69.2342 323° Northwest 397 457 40,000  Level Miami Center
Wed 04:53:39 AM 22.0789 -69.3119 319° Northwest 397 457 40,000  Level Miami Center
Wed 04:54:39 AM 22.1639 -69.3878 320° Northwest 397 457 40,000  Level Miami Center
Wed 04:55:39 AM 22.2553 -69.4653 322° Northwest 397 457 40,000  Level Miami Center
Wed 04:56:39 AM 22.3383 -69.5436 319° Northwest 397 457 40,000  Level Miami Center
Wed 04:57:39 AM 22.4231 -69.6172 321° Northwest 397 457 40,000  Level Miami Center
Wed 04:58:39 AM 22.5058 -69.6914 320° Northwest 398 458 40,000  Level Miami Center
Wed 04:59:39 AM 22.5931 -69.7694 320° Northwest 398 458 40,000  Level Miami Center
Wed 05:00:39 AM 22.6822 -69.8478 321° Northwest 398 458 40,000  Level Miami Center
Wed 05:01:39 AM 22.7628 -69.9244 319° Northwest 398 458 40,000  Level Miami Center
Wed 05:02:39 AM 22.8519 -70.0031 321° Northwest 397 457 40,000  Level Miami Center
Wed 05:03:39 AM 22.9367 -70.0772 321° Northwest 397 457 40,000  Level Miami Center
Wed 05:04:39 AM 23.0217 -70.1561 320° Northwest 397 457 40,000  Level Miami Center
Wed 05:05:39 AM 23.1061 -70.2306 321° Northwest 389 448 40,000  Level Miami Center
Wed 05:06:39 AM 23.1911 -70.3122 319° Northwest 397 457 40,000  Level Miami Center
Wed 05:07:39 AM 23.2758 -70.3867 321° Northwest 397 457 40,000  Level Miami Center
Wed 05:08:39 AM 23.3606 -70.4661 319° Northwest 397 457 40,000  Level Miami Center
Wed 05:09:39 AM 23.4450 -70.5411 321° Northwest 397 457 40,000  Level Miami Center
Wed 05:10:39 AM 23.5319 -70.6228 319° Northwest 397 457 40,000  Level Miami Center
Wed 05:11:39 AM 23.6142 -70.6933 322° Northwest 392 451 40,000  Level Miami Center
Wed 05:12:39 AM 23.7014 -70.7867 316° Northwest 397 457 40,000  Level Miami Center
Wed 05:13:39 AM 23.7856 -70.8528 324° Northwest 397 457 40,000  Level Miami Center
Wed 05:14:39 AM 23.8703 -70.9350 318° Northwest 397 457 40,000  Level Miami Center
Wed 05:15:39 AM 23.9547 -71.0128 320° Northwest 402 463 40,000  Level Miami Center
Wed 05:16:39 AM 24.0372 -71.0908 319° Northwest 402 463 40,000  Level Miami Center
Wed 05:17:39 AM 24.1217 -71.1689 320° Northwest 402 463 40,000  Level Miami Center
Wed 05:18:39 AM 24.2061 -71.2492 319° Northwest 402 463 40,000  Level Miami Center
Wed 05:19:39 AM 24.2903 -71.3228 321° Northwest 397 457 40,000  Level Miami Center
Wed 05:20:39 AM 24.3750 -71.4125 316° Northwest 402 463 40,000  Level Miami Center
Wed 05:21:39 AM 24.4569 -71.4864 321° Northwest 402 463 40,000  Level Miami Center
Wed 05:22:39 AM 24.5431 -71.5581 323° Northwest 397 457 40,000  Level Miami Center
Wed 05:23:39 AM 24.6253 -71.6414 317° Northwest 397 457 40,000  Level Miami Center
Wed 05:24:39 AM 24.7119 -71.7267 318° Northwest 397 457 40,000  Level Miami Center
Wed 05:25:39 AM 24.7981 -71.8056 320° Northwest 397 457 40,000  Level Miami Center
Wed 05:26:39 AM 24.8844 -71.8842 320° Northwest 397 457 40,000  Level Miami Center
Wed 05:27:39 AM 24.9775 -71.9836 316° Northwest 407 468 40,000  Level Miami Center
Wed 05:28:39 AM 25.0650 -72.0467 327° Northwest 401 461 40,000  Level Miami Center
Wed 05:29:58 AM 25.0000 -72.0000 330° Northwest 409 471 40,000  Level New York Oceanic (ODAPS)
Wed 05:36:00 AM 25.8894 -72.5655 330° Northwest 409 471 40,000  Level FlightAware Transoceanic
Wed 05:37:00 AM 25.9881 -72.6289 330° Northwest 409 471 40,000  Level FlightAware Transoceanic
Wed 05:38:00 AM 26.0868 -72.6923 330° Northwest 409 471 40,000  Level FlightAware Transoceanic
Wed 05:39:00 AM 26.1854 -72.7559 330° Northwest 409 471 40,000  Level FlightAware Transoceanic
Wed 05:40:00 AM 26.2840 -72.8196 330° Northwest 409 471 40,000  Level FlightAware Transoceanic
Wed 05:41:00 AM 26.3826 -72.8833 330° Northwest 409 471 40,000  Level FlightAware Transoceanic
Wed 05:42:00 AM 26.4811 -72.9472 330° Northwest 409 471 40,000  Level FlightAware Transoceanic
Wed 05:43:00 AM 26.5797 -73.0112 330° Northwest 409 471 40,000  Level FlightAware Transoceanic
Wed 05:44:00 AM 26.6782 -73.0753 330° Northwest 409 471 40,000  Level FlightAware Transoceanic
Wed 05:45:00 AM 26.7766 -73.1396 330° Northwest 409 471 40,000  Level FlightAware Transoceanic
Wed 05:46:00 AM 26.8751 -73.2039 330° Northwest 409 471 40,000  Level FlightAware Transoceanic
Wed 05:47:00 AM 26.9735 -73.2684 330° Northwest 409 471 40,000  Level FlightAware Transoceanic
Wed 05:48:00 AM 27.0718 -73.3329 330° Northwest 409 471 40,000  Level FlightAware Transoceanic
Wed 05:49:00 AM 27.1702 -73.3976 330° Northwest 409 471 40,000  Level FlightAware Transoceanic
Wed 05:50:00 AM 27.2685 -73.4624 330° Northwest 409 471 40,000  Level FlightAware Transoceanic
Wed 05:51:00 AM 27.3668 -73.5273 330° Northwest 409 471 40,000  Level FlightAware Transoceanic
Wed 05:52:00 AM 27.4650 -73.5923 330° Northwest 409 471 40,000  Level FlightAware Transoceanic
Wed 05:53:00 AM 27.5633 -73.6574 330° Northwest 409 471 40,000  Level FlightAware Transoceanic
Wed 05:54:00 AM 27.6615 -73.7227 329° Northwest 409 471 40,000  Level FlightAware Transoceanic
Wed 05:55:00 AM 27.7596 -73.7880 329° Northwest 409 471 40,000  Level FlightAware Transoceanic
Wed 05:56:00 AM 27.8578 -73.8535 329° Northwest 409 471 40,000  Level FlightAware Transoceanic
Wed 05:57:00 AM 27.9559 -73.9191 329° Northwest 409 471 40,000  Level FlightAware Transoceanic
Wed 05:58:00 AM 28.0539 -73.9849 329° Northwest 409 471 40,000  Level FlightAware Transoceanic
Wed 05:59:00 AM 28.1520 -74.0507 329° Northwest 409 471 40,000  Level FlightAware Transoceanic
Wed 06:00:00 AM 28.2500 -74.1167 322° Northwest 409 471 40,000  Level FlightAware Transoceanic
Wed 06:01:00 AM 28.3394 -74.1966 322° Northwest 409 471 40,000  Level FlightAware Transoceanic
Wed 06:02:00 AM 28.4288 -74.2767 322° Northwest 409 471 40,000  Level FlightAware Transoceanic
Wed 06:03:00 AM 28.5181 -74.3570 322° Northwest 409 471 40,000  Level FlightAware Transoceanic
Wed 06:04:00 AM 28.6074 -74.4373 322° Northwest 409 471 40,000  Level FlightAware Transoceanic
Wed 06:05:00 AM 28.6966 -74.5178 322° Northwest 409 471 40,000  Level FlightAware Transoceanic
Wed 06:06:00 AM 28.7858 -74.5985 322° Northwest 409 471 40,000  Level FlightAware Transoceanic
Wed 06:07:00 AM 28.8749 -74.6793 322° Northwest 409 471 40,000  Level FlightAware Transoceanic
Wed 06:08:00 AM 28.9640 -74.7602 321° Northwest 409 471 40,000  Level FlightAware Transoceanic
Wed 06:09:00 AM 29.0530 -74.8412 321° Northwest 409 471 40,000  Level FlightAware Transoceanic
Wed 06:09:33 AM 28.2500 -74.1167 322° Northwest 421 484 40,000  Level New York Oceanic (ODAPS)
Wed 06:10:00 AM 29.1420 -74.9224 321° Northwest 409 471 40,000  Level FlightAware Transoceanic
Wed 06:11:00 AM 29.2309 -75.0038 321° Northwest 409 471 40,000  Level FlightAware Transoceanic
Wed 06:12:00 AM 29.3198 -75.0853 321° Northwest 409 471 40,000  Level FlightAware Transoceanic
Wed 06:13:00 AM 29.4087 -75.1669 321° Northwest 409 471 40,000  Level FlightAware Transoceanic
Wed 06:14:00 AM 29.4975 -75.2487 321° Northwest 409 471 40,000  Level FlightAware Transoceanic
Wed 06:15:00 AM 29.7166 -75.4513 321° Northwest 421 484 40,000  Level FlightAware Transoceanic
Wed 06:16:00 AM 29.8078 -75.5360 321° Northwest 421 484 40,000  Level FlightAware Transoceanic
Wed 06:17:00 AM 29.8990 -75.6208 321° Northwest 421 484 40,000  Level FlightAware Transoceanic
Wed 06:18:00 AM 29.9901 -75.7058 321° Northwest 421 484 40,000  Level FlightAware Transoceanic
Wed 06:19:00 AM 30.0812 -75.7910 321° Northwest 421 484 40,000  Level FlightAware Transoceanic
Wed 06:20:00 AM 30.1721 -75.8763 321° Northwest 421 484 40,000  Level FlightAware Transoceanic
Wed 06:21:00 AM 30.2631 -75.9618 321° Northwest 421 484 40,000  Level FlightAware Transoceanic
Wed 06:22:00 AM 30.3540 -76.0474 321° Northwest 421 484 40,000  Level FlightAware Transoceanic
Wed 06:23:00 AM 30.4448 -76.1332 321° Northwest 421 484 40,000  Level FlightAware Transoceanic
Wed 06:24:00 AM 30.5356 -76.2191 321° Northwest 421 484 40,000  Level FlightAware Transoceanic
Wed 06:25:00 AM 30.6263 -76.3053 321° Northwest 421 484 40,000  Level FlightAware Transoceanic
Wed 06:26:00 AM 30.7170 -76.3915 321° Northwest 421 484 40,000  Level FlightAware Transoceanic
Wed 06:27:00 AM 30.8076 -76.4780 321° Northwest 421 484 40,000  Level FlightAware Transoceanic
Wed 06:28:00 AM 30.8981 -76.5646 321° Northwest 421 484 40,000  Level FlightAware Transoceanic
Wed 06:29:00 AM 30.9886 -76.6513 321° Northwest 421 484 40,000  Level FlightAware Transoceanic
Wed 06:30:00 AM 31.0791 -76.7382 321° Northwest 421 484 40,000  Level FlightAware Transoceanic
Wed 06:31:00 AM 31.1694 -76.8253 320° Northwest 421 484 40,000  Level FlightAware Transoceanic
Wed 06:32:00 AM 31.2597 -76.9126 320° Northwest 421 484 40,000 -606 Level FlightAware Transoceanic
Wed 06:32:39 AM 31.1417 -76.8083 321° Northwest 473 544 39,000  Descending Jacksonville Center
Wed 06:33:00 AM 31.3500 -77.0000 321° Northwest 421 484 40,000 -1,200 Climbing FlightAware Transoceanic
Wed 06:33:39 AM 31.2267 -76.8828 323° Northwest 439 505 37,800  Descending Jacksonville Center
Wed 06:34:00 AM 31.4403 -77.0843 321° Northwest 421 484 40,000 -1,700 Climbing FlightAware Transoceanic
Wed 06:34:39 AM 31.3117 -76.9600 322° Northwest 403 464 36,100 -3,152 Descending Jacksonville Center
Wed 06:35:39 AM 31.3953 -77.0497 318° Northwest 397 457 34,800 -1,400 Descending Jacksonville Center
Wed 06:36:39 AM 31.4828 -77.1417 318° Northwest 403 464 33,300 -1,400 Descending Jacksonville Center
Wed 06:37:39 AM 31.5683 -77.2314 318° Northwest 409 471 32,000 -650 Descending Jacksonville Center
Wed 06:38:39 AM 31.6558 -77.3211 319° Northwest 409 471 32,000  Level Jacksonville Center
Wed 06:39:39 AM 31.7431 -77.4111 319° Northwest 415 478 32,000  Level Jacksonville Center
Wed 06:40:39 AM 31.8325 -77.5011 319° Northwest 420 483 32,000  Level Jacksonville Center
Wed 06:41:39 AM 31.9222 -77.5939 319° Northwest 420 483 32,000  Level Jacksonville Center
Wed 06:42:39 AM 32.0117 -77.6917 317° Northwest 427 491 32,000  Level Jacksonville Center
Wed 06:43:39 AM 32.1028 -77.7769 322° Northwest 432 497 32,000  Level Jacksonville Center
Wed 06:44:39 AM 32.1903 -77.8778 316° Northwest 427 491 32,000  Level Jacksonville Center
Wed 06:45:39 AM 32.2794 -77.9686 319° Northwest 427 491 32,000  Level Jacksonville Center
Wed 06:46:39 AM 32.3686 -78.0622 318° Northwest 433 498 32,000  Level Jacksonville Center
Wed 06:47:39 AM 32.4578 -78.1558 318° Northwest 433 498 32,000  Level Jacksonville Center
Wed 06:48:39 AM 32.5447 -78.2500 318° Northwest 428 493 32,000  Level Jacksonville Center
Wed 06:49:39 AM 32.6336 -78.3392 320° Northwest 433 498 32,000  Level Jacksonville Center
Wed 06:50:39 AM 32.7225 -78.4358 318° Northwest 428 493 32,000  Level Jacksonville Center
Wed 06:51:39 AM 32.7942 -78.5114 318° Northwest 428 493 32,000 -450 Level Jacksonville Center
Wed 06:52:39 AM 32.9003 -78.6225 319° Northwest 433 498 31,100 -500 Descending Jacksonville Center
Wed 06:53:39 AM 32.9889 -78.7172 318° Northwest 433 498 31,000 -50 Descending Jacksonville Center
Wed 06:54:39 AM 33.0778 -78.8147 317° Northwest 433 498 31,000  Level Jacksonville Center
Wed 06:55:39 AM 33.1575 -78.8956 320° Northwest 433 498 31,000  Level Jacksonville Center
Wed 06:56:39 AM 33.2483 -78.9933 318° Northwest 433 498 31,000  Level Jacksonville Center
Wed 06:57:39 AM 33.3367 -79.0889 318° Northwest 433 498 31,000 -150 Level Jacksonville Center
Wed 06:58:39 AM 33.4294 -79.1869 319° Northwest 433 498 30,700 -1,450 Descending Jacksonville Center
Wed 06:59:39 AM 33.5133 -79.2806 317° Northwest 427 491 28,100 -2,650 Descending Jacksonville Center
Wed 07:00:39 AM 33.5975 -79.3742 317° Northwest 421 484 25,400 -2,550 Descending Jacksonville Center
Wed 07:01:39 AM 33.6836 -79.4683 318° Northwest 416 479 23,000 -1,200 Descending Jacksonville Center
Wed 07:02:39 AM 33.7758 -79.5619 320° Northwest 416 479 23,000  Level Jacksonville Center
Wed 07:03:39 AM 33.8739 -79.6458 325° Northwest 423 487 23,000  Level Jacksonville Center
Wed 07:04:39 AM 33.9697 -79.7250 326° Northwest 428 493 23,000  Level Jacksonville Center
Wed 07:05:39 AM 34.0678 -79.8067 325° Northwest 428 493 23,000 -50 Level Jacksonville Center
Wed 07:06:39 AM 34.1658 -79.8858 326° Northwest 428 493 22,900 -900 Descending Jacksonville Center
Wed 07:07:39 AM 34.2594 -79.9631 326° Northwest 422 486 21,200 -2,150 Descending Jacksonville Center
Wed 07:08:39 AM 34.3531 -80.0431 325° Northwest 411 473 18,600 -2,350 Descending Jacksonville Center
Wed 07:09:39 AM 34.4403 -80.1181 325° Northwest 401 461 16,500 -2,100 Descending Jacksonville Center
Wed 07:10:39 AM 34.5231 -80.1886 325° Northwest 388 447 14,400 -2,190 Descending Jacksonville Center
Wed 07:11:56 AM 34.6344 -80.2897 323° Northwest 360 414 11,500 -1,417 Descending Atlanta Center
Wed 07:13:03 AM 34.7139 -80.3622 323° Northwest 316 364 11,000 -469 Descending Atlanta Center
Wed 07:14:04 AM 34.7722 -80.4356 314° West 288 331 10,500 -873 Descending Atlanta Center
Wed 07:14:53 AM 34.8036 -80.5075 298° West 315 362 9,400 -1,340 Descending Atlanta Center
Wed 07:15:47 AM 34.8414 -80.5867 300° West 289 333 8,200 -1,278 Descending Atlanta Center
Wed 07:16:41 AM 34.8747 -80.6589 299° West 280 322 7,100 -991 Descending Atlanta Center
Wed 07:17:42 AM 34.9081 -80.7386 297° West 268 308 6,300 -893 Descending Atlanta Center
Wed 07:18:42 AM 34.9372 -80.8108 296° West 225 259 5,300 -991 Descending Atlanta Center
Wed 07:19:37 AM 34.9617 -80.8708 296° West 213 245 4,400 -672 Descending Atlanta Center
Wed 07:20:38 AM 35.0131 -80.9169 324° Northwest 212 244 4,000 -645 Descending Atlanta Center
Wed 07:21:38 AM 35.0611 -80.9253 352° North 161 185 3,100 -574 Descending Atlanta Center
Wed 07:22:33 AM 35.0947 -80.9267 358° North 131 151 2,900 -218 Descending Atlanta Center

Login

Don't have an account? Register now (free) for customized features, flight alerts, and more!